Time,TemperatureF,DewpointF,PressureIn,WindDirection,WindDirectionDegrees,WindSpeedMPH,WindSpeedGustMPH,Humidity,HourlyPrecipIn,Conditions,Clouds,dailyrainin,SoftwareType,DateUTC
2013-04-21 00:00:00,28.1,21.2,30.14,South,182,0.0,0.0,75,0.00,,,0.00,Wunderground v.1.15,2013-04-21 06:00:00,
2013-04-21 00:05:00,28.0,21.4,30.14,South,182,0.0,0.0,76,0.00,,,0.00,Wunderground v.1.15,2013-04-21 06:05:00,
2013-04-21 00:10:00,27.9,21.6,30.14,South,182,0.0,0.0,77,0.00,,,0.00,Wunderground v.1.15,2013-04-21 06:10:00,
2013-04-21 00:15:00,27.8,21.2,30.14,South,182,0.0,0.0,76,0.00,,,0.00,Wunderground v.1.15,2013-04-21 06:15:00,
2013-04-21 00:25:00,27.5,21.2,30.14,South,182,0.0,0.0,77,0.00,,,0.00,Wunderground v.1.15,2013-04-21 06:25:00,
2013-04-21 00:35:00,27.3,21.0,30.15,South,182,0.0,0.0,77,0.00,,,0.00,Wunderground v.1.15,2013-04-21 06:35:00,
2013-04-21 00:45:00,27.2,20.9,30.15,South,182,0.0,0.0,77,0.00,,,0.00,Wunderground v.1.15,2013-04-21 06:45:00,
2013-04-21 00:50:00,27.1,20.8,30.15,South,182,0.0,1.0,77,0.00,,,0.00,Wunderground v.1.15,2013-04-21 06:50:00,
2013-04-21 00:55:00,27.0,20.7,30.14,South,182,0.0,1.0,77,0.00,,,0.00,Wunderground v.1.15,2013-04-21 06:55:00,
2013-04-21 01:05:00,26.9,20.7,30.14,South,182,0.0,0.0,77,0.00,,,0.00,Wunderground v.1.15,2013-04-21 07:05:00,
2013-04-21 01:15:00,26.7,20.1,30.15,South,182,0.0,1.0,76,0.00,,,0.00,Wunderground v.1.15,2013-04-21 07:15:00,
2013-04-21 01:25:00,26.4,20.5,30.15,South,182,0.0,1.0,78,0.00,,,0.00,Wunderground v.1.15,2013-04-21 07:25:00,
2013-04-21 01:35:00,26.3,20.7,30.15,South,182,0.0,1.0,79,0.00,,,0.00,Wunderground v.1.15,2013-04-21 07:35:00,
2013-04-21 01:40:00,26.2,20.6,30.16,South,182,0.0,1.0,79,0.00,,,0.00,Wunderground v.1.15,2013-04-21 07:40:00,
2013-04-21 01:50:00,26.1,20.2,30.16,South,182,0.0,1.0,78,0.00,,,0.00,Wunderground v.1.15,2013-04-21 07:50:00,
2013-04-21 01:55:00,26.1,20.2,30.16,South,182,0.0,1.0,78,0.00,,,0.00,Wunderground v.1.15,2013-04-21 07:55:00,
2013-04-21 02:00:00,26.0,20.1,30.16,South,182,0.0,1.0,78,0.00,,,0.00,Wunderground v.1.15,2013-04-21 08:00:00,
2013-04-21 02:10:00,25.8,20.8,30.16,South,182,0.0,1.0,81,0.00,,,0.00,Wunderground v.1.15,2013-04-21 08:10:00,
2013-04-21 02:15:00,25.7,20.4,30.16,South,182,0.0,1.0,80,0.00,,,0.00,Wunderground v.1.15,2013-04-21 08:15:00,
2013-04-21 02:25:00,25.4,20.1,30.17,South,182,0.0,0.0,80,0.00,,,0.00,Wunderground v.1.15,2013-04-21 08:25:00,
2013-04-21 02:30:00,25.2,19.9,30.17,South,182,0.0,0.0,80,0.00,,,0.00,Wunderground v.1.15,2013-04-21 08:30:00,
2013-04-21 02:35:00,25.1,19.8,30.17,South,182,0.0,0.0,80,0.00,,,0.00,Wunderground v.1.15,2013-04-21 08:35:00,
2013-04-21 02:40:00,25.1,19.8,30.17,South,182,0.0,0.0,80,0.00,,,0.00,Wunderground v.1.15,2013-04-21 08:40:00,
2013-04-21 02:50:00,24.8,19.2,30.17,South,182,0.0,0.0,79,0.00,,,0.00,Wunderground v.1.15,2013-04-21 08:50:00,
2013-04-21 03:00:00,24.7,19.7,30.17,South,182,0.0,0.0,81,0.00,,,0.00,Wunderground v.1.15,2013-04-21 09:00:00,
2013-04-21 03:05:00,24.7,19.7,30.17,South,182,0.0,0.0,81,0.00,,,0.00,Wunderground v.1.15,2013-04-21 09:05:00,
2013-04-21 03:15:00,24.4,18.8,30.17,South,182,0.0,0.0,79,0.00,,,0.00,Wunderground v.1.15,2013-04-21 09:15:00,
2013-04-21 03:25:00,24.2,19.2,30.17,South,182,0.0,0.0,81,0.00,,,0.00,Wunderground v.1.15,2013-04-21 09:25:00,
2013-04-21 03:35:00,23.9,18.9,30.17,South,182,0.0,0.0,81,0.00,,,0.00,Wunderground v.1.15,2013-04-21 09:35:00,
2013-04-21 03:45:00,23.8,19.1,30.18,South,182,0.0,0.0,82,0.00,,,0.00,Wunderground v.1.15,2013-04-21 09:45:00,
2013-04-21 03:55:00,23.5,18.5,30.18,South,182,0.0,0.0,81,0.00,,,0.00,Wunderground v.1.15,2013-04-21 09:55:00,
2013-04-21 04:00:00,23.3,18.3,30.18,South,182,0.0,0.0,81,0.00,,,0.00,Wunderground v.1.15,2013-04-21 10:00:00,
2013-04-21 04:05:00,23.1,18.1,30.18,South,182,0.0,0.0,81,0.00,,,0.00,Wunderground v.1.15,2013-04-21 10:05:00,
2013-04-21 04:10:00,23.0,18.0,30.19,South,182,0.0,0.0,81,0.00,,,0.00,Wunderground v.1.15,2013-04-21 10:10:00,
2013-04-21 04:15:00,22.9,18.2,30.19,South,182,0.0,0.0,82,0.00,,,0.00,Wunderground v.1.15,2013-04-21 10:15:00,
2013-04-21 04:25:00,23.0,18.6,30.18,South,182,0.0,0.0,83,0.00,,,0.00,Wunderground v.1.15,2013-04-21 10:25:00,
2013-04-21 04:30:00,22.8,18.1,30.18,South,182,0.0,0.0,82,0.00,,,0.00,Wunderground v.1.15,2013-04-21 10:30:00,
2013-04-21 04:35:00,22.6,17.9,30.18,South,182,0.0,0.0,82,0.00,,,0.00,Wunderground v.1.15,2013-04-21 10:35:00,
2013-04-21 04:45:00,22.5,18.1,30.18,South,182,0.0,0.0,83,0.00,,,0.00,Wunderground v.1.15,2013-04-21 10:45:00,
2013-04-21 04:50:00,22.5,18.1,30.18,South,182,0.0,0.0,83,0.00,,,0.00,Wunderground v.1.15,2013-04-21 10:50:00,
2013-04-21 05:00:00,22.3,17.6,30.19,South,182,0.0,0.0,82,0.00,,,0.00,Wunderground v.1.15,2013-04-21 11:00:00,
2013-04-21 05:10:00,22.1,17.7,30.19,South,182,0.0,0.0,83,0.00,,,0.00,Wunderground v.1.15,2013-04-21 11:10:00,
2013-04-21 05:15:00,22.1,18.0,30.19,South,182,0.0,1.0,84,0.00,,,0.00,Wunderground v.1.15,2013-04-21 11:15:00,
2013-04-21 05:25:00,22.0,17.6,30.19,South,182,0.0,1.0,83,0.00,,,0.00,Wunderground v.1.15,2013-04-21 11:25:00,
2013-04-21 05:30:00,21.8,17.2,30.19,South,182,0.0,1.0,82,0.00,,,0.00,Wunderground v.1.15,2013-04-21 11:30:00,
2013-04-21 05:40:00,21.6,17.2,30.19,South,182,0.0,1.0,83,0.00,,,0.00,Wunderground v.1.15,2013-04-21 11:40:00,
2013-04-21 05:50:00,21.5,17.4,30.19,South,182,0.0,1.0,84,0.00,,,0.00,Wunderground v.1.15,2013-04-21 11:50:00,
2013-04-21 05:55:00,21.6,17.5,30.20,South,182,0.0,1.0,84,0.00,,,0.00,Wunderground v.1.15,2013-04-21 11:55:00,
2013-04-21 06:00:00,21.6,17.2,30.20,South,182,0.0,1.0,83,0.00,,,0.00,Wunderground v.1.15,2013-04-21 12:00:00,
2013-04-21 06:05:00,21.5,17.1,30.20,South,182,0.0,1.0,83,0.00,,,0.00,Wunderground v.1.15,2013-04-21 12:05:00,
2013-04-21 06:15:00,21.2,16.8,30.21,South,182,0.0,1.0,83,0.00,,,0.00,Wunderground v.1.15,2013-04-21 12:15:00,
2013-04-21 06:25:00,21.2,17.1,30.22,South,182,0.0,0.0,84,0.00,,,0.00,Wunderground v.1.15,2013-04-21 12:25:00,
2013-04-21 06:30:00,21.2,17.1,30.22,South,182,0.0,0.0,84,0.00,,,0.00,Wunderground v.1.15,2013-04-21 12:30:00,
2013-04-21 06:35:00,21.2,17.1,30.23,South,182,0.0,0.0,84,0.00,,,0.00,Wunderground v.1.15,2013-04-21 12:35:00,
2013-04-21 06:40:00,21.2,16.8,30.22,South,182,0.0,0.0,83,0.00,,,0.00,Wunderground v.1.15,2013-04-21 12:40:00,
2013-04-21 06:50:00,21.0,16.6,30.23,South,182,0.0,0.0,83,0.00,,,0.00,Wunderground v.1.15,2013-04-21 12:50:00,
2013-04-21 06:55:00,21.0,16.6,30.23,South,182,0.0,0.0,83,0.00,,,0.00,Wunderground v.1.15,2013-04-21 12:55:00,
2013-04-21 07:05:00,21.0,16.6,30.24,South,182,0.0,0.0,83,0.00,,,0.00,Wunderground v.1.15,2013-04-21 13:05:00,
2013-04-21 07:10:00,21.1,17.0,30.24,South,182,0.0,0.0,84,0.00,,,0.00,Wunderground v.1.15,2013-04-21 13:10:00,
2013-04-21 07:15:00,21.1,16.7,30.24,South,182,0.0,1.0,83,0.00,,,0.00,Wunderground v.1.15,2013-04-21 13:15:00,
2013-04-21 07:25:00,21.2,17.1,30.25,South,182,0.0,1.0,84,0.00,,,0.00,Wunderground v.1.15,2013-04-21 13:25:00,
2013-04-21 07:35:00,21.6,17.5,30.25,South,182,0.0,1.0,84,0.00,,,0.00,Wunderground v.1.15,2013-04-21 13:35:00,
2013-04-21 07:45:00,22.2,18.1,30.25,South,182,0.0,1.0,84,0.00,,,0.00,Wunderground v.1.15,2013-04-21 13:45:00,
2013-04-21 07:50:00,22.5,18.4,30.25,South,182,0.0,1.0,84,0.00,,,0.00,Wunderground v.1.15,2013-04-21 13:50:00,
2013-04-21 07:55:00,22.8,18.7,30.25,South,182,0.0,1.0,84,0.00,,,0.00,Wunderground v.1.15,2013-04-21 13:55:00,
2013-04-21 08:00:00,23.3,19.5,30.25,South,182,0.0,1.0,85,0.00,,,0.00,Wunderground v.1.15,2013-04-21 14:00:00,
2013-04-21 08:10:00,24.3,19.6,30.25,South,182,0.0,1.0,82,0.00,,,0.00,Wunderground v.1.15,2013-04-21 14:10:00,
2013-04-21 08:15:00,24.8,20.1,30.25,South,182,0.0,1.0,82,0.00,,,0.00,Wunderground v.1.15,2013-04-21 14:15:00,
2013-04-21 08:25:00,26.9,21.0,30.25,South,182,0.0,0.0,78,0.00,,,0.00,Wunderground v.1.15,2013-04-21 14:25:00,
2013-04-21 08:35:00,29.0,19.8,30.25,South,182,0.0,0.0,68,0.00,,,0.00,Wunderground v.1.15,2013-04-21 14:35:00,
2013-04-21 08:40:00,29.7,19.4,30.25,South,182,0.0,0.0,65,0.00,,,0.00,Wunderground v.1.15,2013-04-21 14:40:00,
2013-04-21 08:45:00,30.3,19.2,30.25,South,182,0.0,0.0,63,0.00,,,0.00,Wunderground v.1.15,2013-04-21 14:45:00,
2013-04-21 08:55:00,31.9,19.2,30.25,South,182,0.0,0.0,59,0.00,,,0.00,Wunderground v.1.15,2013-04-21 14:55:00,
2013-04-21 09:00:00,32.7,19.5,30.25,South,182,0.0,0.0,58,0.00,,,0.00,Wunderground v.1.15,2013-04-21 15:00:00,
2013-04-21 09:10:00,35.2,17.9,30.25,South,190,1.0,1.0,49,0.00,,,0.00,Wunderground v.1.15,2013-04-21 15:10:00,
2013-04-21 09:15:00,36.0,17.7,30.25,South,190,1.0,1.0,47,0.00,,,0.00,Wunderground v.1.15,2013-04-21 15:15:00,
2013-04-21 09:25:00,37.7,19.3,30.25,South,190,0.0,1.0,47,0.00,,,0.00,Wunderground v.1.15,2013-04-21 15:25:00,
2013-04-21 09:30:00,38.8,18.2,30.25,South,190,0.0,1.0,43,0.00,,,0.00,Wunderground v.1.15,2013-04-21 15:30:00,
2013-04-21 09:35:00,40.0,20.3,30.24,South,190,0.0,1.0,45,0.00,,,0.00,Wunderground v.1.15,2013-04-21 15:35:00,
2013-04-21 09:45:00,42.6,19.9,30.24,South,169,1.0,2.0,40,0.00,,,0.00,Wunderground v.1.15,2013-04-21 15:45:00,
2013-04-21 09:55:00,45.0,19.0,30.24,SE,133,0.0,1.0,35,0.00,,,0.00,Wunderground v.1.15,2013-04-21 15:55:00,
2013-04-21 10:00:00,45.7,19.6,30.24,SSW,207,0.0,1.0,35,0.00,,,0.00,Wunderground v.1.15,2013-04-21 16:00:00,
2013-04-21 10:05:00,46.4,20.2,30.24,ESE,117,1.0,3.0,35,0.00,,,0.00,Wunderground v.1.15,2013-04-21 16:05:00,
2013-04-21 10:15:00,47.0,19.3,30.24,SSE,165,2.0,3.0,33,0.00,,,0.00,Wunderground v.1.15,2013-04-21 16:15:00,
2013-04-21 10:25:00,47.7,19.2,30.23,SSW,199,1.0,3.0,32,0.00,,,0.00,Wunderground v.1.15,2013-04-21 16:25:00,
2013-04-21 10:30:00,48.4,19.9,30.23,ESE,119,1.0,3.0,32,0.00,,,0.00,Wunderground v.1.15,2013-04-21 16:30:00,
2013-04-21 10:35:00,49.0,21.1,30.23,ESE,109,1.0,3.0,33,0.00,,,0.00,Wunderground v.1.15,2013-04-21 16:35:00,
2013-04-21 10:45:00,50.0,20.5,30.23,East,87,2.0,3.0,31,0.00,,,0.00,Wunderground v.1.15,2013-04-21 16:45:00,
2013-04-21 10:50:00,49.9,18.0,30.23,South,183,2.0,3.0,28,0.00,,,0.00,Wunderground v.1.15,2013-04-21 16:50:00,
2013-04-21 11:00:00,50.2,19.1,30.23,SW,214,2.0,3.0,29,0.00,,,0.00,Wunderground v.1.15,2013-04-21 17:00:00,
2013-04-21 11:10:00,50.6,20.3,30.22,South,182,2.0,2.0,30,0.00,,,0.00,Wunderground v.1.15,2013-04-21 17:10:00,
2013-04-21 11:15:00,50.8,19.6,30.22,SSW,193,2.0,6.0,29,0.00,,,0.00,Wunderground v.1.15,2013-04-21 17:15:00,
2013-04-21 11:25:00,50.9,21.3,30.22,SSE,168,2.0,6.0,31,0.00,,,0.00,Wunderground v.1.15,2013-04-21 17:25:00,
2013-04-21 11:35:00,51.4,21.0,30.21,ENE,75,2.0,5.0,30,0.00,,,0.00,Wunderground v.1.15,2013-04-21 17:35:00,
2013-04-21 11:45:00,51.2,20.8,30.21,East,92,3.0,6.0,30,0.00,,,0.00,Wunderground v.1.15,2013-04-21 17:45:00,
2013-04-21 11:50:00,51.2,21.6,30.21,East,86,3.0,6.0,31,0.00,,,0.00,Wunderground v.1.15,2013-04-21 17:50:00,
2013-04-21 12:00:00,52.2,22.4,30.21,SW,229,2.0,6.0,31,0.00,,,0.00,Wunderground v.1.15,2013-04-21 18:00:00,
2013-04-21 12:05:00,53.0,23.1,30.20,SE,143,2.0,6.0,31,0.00,,,0.00,Wunderground v.1.15,2013-04-21 18:05:00,
2013-04-21 12:15:00,53.6,22.9,30.19,SSE,149,2.0,8.0,30,0.00,,,0.00,Wunderground v.1.15,2013-04-21 18:15:00,
2013-04-21 12:25:00,54.1,24.1,30.19,ESE,119,2.0,8.0,31,0.00,,,0.00,Wunderground v.1.15,2013-04-21 18:25:00,
2013-04-21 12:35:00,54.7,23.0,30.18,NE,55,2.0,8.0,29,0.00,,,0.00,Wunderground v.1.15,2013-04-21 18:35:00,
2013-04-21 12:45:00,54.7,23.0,30.18,SSW,211,2.0,8.0,29,0.00,,,0.00,Wunderground v.1.15,2013-04-21 18:45:00,
2013-04-21 12:50:00,54.8,23.1,30.18,SW,217,2.0,8.0,29,0.00,,,0.00,Wunderground v.1.15,2013-04-21 18:50:00,
2013-04-21 13:00:00,55.3,22.7,30.17,ESE,103,2.0,8.0,28,0.00,,,0.00,Wunderground v.1.15,2013-04-21 19:00:00,
2013-04-21 13:05:00,54.9,24.8,30.16,East,88,3.0,8.0,31,0.00,,,0.00,Wunderground v.1.15,2013-04-21 19:05:00,
2013-04-21 13:10:00,55.2,24.3,30.16,SW,236,3.0,8.0,30,0.00,,,0.00,Wunderground v.1.15,2013-04-21 19:10:00,
2013-04-21 13:15:00,55.6,23.8,30.16,East,86,2.0,8.0,29,0.00,,,0.00,Wunderground v.1.15,2013-04-21 19:15:00,
2013-04-21 13:25:00,55.3,24.4,30.15,East,85,3.0,7.0,30,0.00,,,0.00,Wunderground v.1.15,2013-04-21 19:25:00,
2013-04-21 13:30:00,55.7,23.9,30.15,East,100,2.0,7.0,29,0.00,,,0.00,Wunderground v.1.15,2013-04-21 19:30:00,
2013-04-21 13:35:00,55.3,22.7,30.15,SE,131,3.0,7.0,28,0.00,,,0.00,Wunderground v.1.15,2013-04-21 19:35:00,
2013-04-21 13:45:00,55.5,22.0,30.14,East,93,2.0,7.0,27,0.00,,,0.00,Wunderground v.1.15,2013-04-21 19:45:00,
2013-04-21 13:50:00,55.5,22.0,30.14,South,171,2.0,2.0,27,0.00,,,0.00,Wunderground v.1.15,2013-04-21 19:50:00,
2013-04-21 13:55:00,56.2,23.5,30.14,East,85,2.0,6.0,28,0.00,,,0.00,Wunderground v.1.15,2013-04-21 19:55:00,
2013-04-21 14:00:00,56.0,22.4,30.12,ESE,104,3.0,7.0,27,0.00,,,0.00,Wunderground v.1.15,2013-04-21 20:00:00,
2013-04-21 14:10:00,56.7,23.9,30.12,SE,141,2.0,2.0,28,0.00,,,0.00,Wunderground v.1.15,2013-04-21 20:10:00,
2013-04-21 14:15:00,56.8,24.8,30.12,East,99,2.0,3.0,29,0.00,,,0.00,Wunderground v.1.15,2013-04-21 20:15:00,
2013-04-21 14:25:00,56.5,23.7,30.11,SSW,198,3.0,8.0,28,0.00,,,0.00,Wunderground v.1.15,2013-04-21 20:25:00,
2013-04-21 14:35:00,57.0,23.3,30.10,ESE,106,2.0,4.0,27,0.00,,,0.00,Wunderground v.1.15,2013-04-21 20:35:00,
2013-04-21 14:40:00,56.8,24.0,30.10,SE,124,2.0,8.0,28,0.00,,,0.00,Wunderground v.1.15,2013-04-21 20:40:00,
2013-04-21 14:45:00,57.1,24.3,30.10,SE,130,2.0,8.0,28,0.00,,,0.00,Wunderground v.1.15,2013-04-21 20:45:00,
2013-04-21 14:50:00,56.8,21.3,30.10,East,91,3.0,3.0,25,0.00,,,0.00,Wunderground v.1.15,2013-04-21 20:50:00,
2013-04-21 14:55:00,57.1,21.6,30.09,SW,218,3.0,4.0,25,0.00,,,0.00,Wunderground v.1.15,2013-04-21 20:55:00,
2013-04-21 15:05:00,56.7,21.2,30.09,East,88,3.0,8.0,25,0.00,,,0.00,Wunderground v.1.15,2013-04-21 21:05:00,
2013-04-21 15:10:00,57.1,21.6,30.09,SE,143,3.0,3.0,25,0.00,,,0.00,Wunderground v.1.15,2013-04-21 21:10:00,
2013-04-21 15:15:00,57.2,21.6,30.09,East,96,2.0,12.0,25,0.00,,,0.00,Wunderground v.1.15,2013-04-21 21:15:00,
2013-04-21 15:25:00,57.6,22.9,30.08,East,96,2.0,12.0,26,0.00,,,0.00,Wunderground v.1.15,2013-04-21 21:25:00,
2013-04-21 15:30:00,57.6,22.9,30.08,ESE,107,3.0,3.0,26,0.00,,,0.00,Wunderground v.1.15,2013-04-21 21:30:00,
2013-04-21 15:40:00,58.0,23.3,30.08,East,89,2.0,12.0,26,0.00,,,0.00,Wunderground v.1.15,2013-04-21 21:40:00,
2013-04-21 15:45:00,58.5,22.8,30.08,South,173,2.0,12.0,25,0.00,,,0.00,Wunderground v.1.15,2013-04-21 21:45:00,
2013-04-21 15:50:00,58.5,21.8,30.08,East,82,2.0,12.0,24,0.00,,,0.00,Wunderground v.1.15,2013-04-21 21:50:00,
2013-04-21 16:00:00,58.2,23.4,30.08,South,174,2.0,2.0,26,0.00,,,0.00,Wunderground v.1.15,2013-04-21 22:00:00,
2013-04-21 16:05:00,57.8,22.2,30.07,ENE,74,2.0,4.0,25,0.00,,,0.00,Wunderground v.1.15,2013-04-21 22:05:00,
2013-04-21 16:10:00,57.7,19.1,30.07,SW,214,2.0,12.0,22,0.00,,,0.00,Wunderground v.1.15,2013-04-21 22:10:00,
2013-04-21 16:15:00,57.7,15.7,30.07,SE,142,2.0,12.0,19,0.00,,,0.00,Wunderground v.1.15,2013-04-21 22:15:00,
2013-04-21 16:25:00,57.7,15.7,30.06,SW,214,1.0,10.0,19,0.00,,,0.00,Wunderground v.1.15,2013-04-21 22:25:00,
2013-04-21 16:30:00,57.6,19.0,30.05,SW,218,1.0,10.0,22,0.00,,,0.00,Wunderground v.1.15,2013-04-21 22:30:00,
2013-04-21 16:40:00,57.8,18.1,30.04,SE,139,1.0,10.0,21,0.00,,,0.00,Wunderground v.1.15,2013-04-21 22:40:00,
2013-04-21 16:50:00,57.6,17.9,30.04,SSE,168,2.0,10.0,21,0.00,,,0.00,Wunderground v.1.15,2013-04-21 22:50:00,
2013-04-21 17:00:00,57.2,17.6,30.03,ESE,103,2.0,2.0,21,0.00,,,0.00,Wunderground v.1.15,2013-04-21 23:00:00,
2013-04-21 17:05:00,57.3,17.6,30.04,SW,227,2.0,10.0,21,0.00,,,0.00,Wunderground v.1.15,2013-04-21 23:05:00,
2013-04-21 17:15:00,57.0,17.4,30.05,SSW,206,0.0,10.0,21,0.00,,,0.00,Wunderground v.1.15,2013-04-21 23:15:00,
2013-04-21 17:25:00,56.5,20.1,30.04,SE,128,1.0,5.0,24,0.00,,,0.00,Wunderground v.1.15,2013-04-21 23:25:00,
2013-04-21 17:30:00,56.5,19.1,30.04,ESE,118,0.0,5.0,23,0.00,,,0.00,Wunderground v.1.15,2013-04-21 23:30:00,
2013-04-21 17:40:00,56.5,19.1,30.05,SSW,209,1.0,5.0,23,0.00,,,0.00,Wunderground v.1.15,2013-04-21 23:40:00,
2013-04-21 17:45:00,56.4,18.0,30.04,SW,222,2.0,5.0,22,0.00,,,0.00,Wunderground v.1.15,2013-04-21 23:45:00,
2013-04-21 17:50:00,56.2,16.7,30.04,South,184,1.0,1.0,21,0.00,,,0.00,Wunderground v.1.15,2013-04-21 23:50:00,
2013-04-21 17:55:00,56.0,15.4,30.04,SSE,168,1.0,2.0,20,0.00,,,0.00,Wunderground v.1.15,2013-04-21 23:55:00,
2013-04-21 18:00:00,55.8,15.3,30.04,ESE,111,1.0,5.0,20,0.00,,,0.00,Wunderground v.1.15,2013-04-22 00:00:00,
2013-04-21 18:05:00,55.5,13.8,30.04,SSW,192,1.0,5.0,19,0.00,,,0.00,Wunderground v.1.15,2013-04-22 00:05:00,
2013-04-21 18:15:00,55.3,16.0,30.05,SSW,211,1.0,5.0,21,0.00,,,0.00,Wunderground v.1.15,2013-04-22 00:15:00,
2013-04-21 18:25:00,55.7,18.4,30.05,SSW,211,0.0,4.0,23,0.00,,,0.00,Wunderground v.1.15,2013-04-22 00:25:00,
2013-04-21 18:35:00,54.5,18.4,30.07,SW,230,0.0,4.0,24,0.00,,,0.00,Wunderground v.1.15,2013-04-22 00:35:00,
2013-04-21 18:40:00,53.5,16.6,30.06,South,186,1.0,4.0,23,0.00,,,0.00,Wunderground v.1.15,2013-04-22 00:40:00,
2013-04-21 18:50:00,52.3,18.4,30.06,SE,131,0.0,4.0,26,0.00,,,0.00,Wunderground v.1.15,2013-04-22 00:50:00,
2013-04-21 19:00:00,51.0,22.1,30.06,South,175,0.0,4.0,32,0.00,,,0.00,Wunderground v.1.15,2013-04-22 01:00:00,
2013-04-21 19:10:00,50.0,21.3,30.06,South,175,0.0,4.0,32,0.00,,,0.00,Wunderground v.1.15,2013-04-22 01:10:00,
2013-04-21 19:15:00,49.5,21.5,30.07,South,175,0.0,4.0,33,0.00,,,0.00,Wunderground v.1.15,2013-04-22 01:15:00,
2013-04-21 19:25:00,49.8,18.8,30.07,SW,225,1.0,3.0,29,0.00,,,0.00,Wunderground v.1.15,2013-04-22 01:25:00,
2013-04-21 19:35:00,49.8,21.8,30.07,SE,146,1.0,3.0,33,0.00,,,0.00,Wunderground v.1.15,2013-04-22 01:35:00,
2013-04-21 19:40:00,49.5,20.1,30.08,SE,146,1.0,1.0,31,0.00,,,0.00,Wunderground v.1.15,2013-04-22 01:40:00,
2013-04-21 19:45:00,49.3,20.6,30.08,SE,146,0.0,3.0,32,0.00,,,0.00,Wunderground v.1.15,2013-04-22 01:45:00,
2013-04-21 19:55:00,48.7,20.1,30.08,SE,146,0.0,3.0,32,0.00,,,0.00,Wunderground v.1.15,2013-04-22 01:55:00,
2013-04-21 20:00:00,48.2,21.1,30.09,SE,146,0.0,3.0,34,0.00,,,0.00,Wunderground v.1.15,2013-04-22 02:00:00,
2013-04-21 20:05:00,47.8,20.8,30.09,SE,146,0.0,3.0,34,0.00,,,0.00,Wunderground v.1.15,2013-04-22 02:05:00,
2013-04-21 20:15:00,46.5,22.2,30.09,SE,146,0.0,3.0,38,0.00,,,0.00,Wunderground v.1.15,2013-04-22 02:15:00,
2013-04-21 20:25:00,45.3,22.4,30.09,SE,146,0.0,2.0,40,0.00,,,0.00,Wunderground v.1.15,2013-04-22 02:25:00,
2013-04-21 20:30:00,44.6,23.5,30.09,SE,146,0.0,2.0,43,0.00,,,0.00,Wunderground v.1.15,2013-04-22 02:30:00,
2013-04-21 20:35:00,44.0,23.5,30.10,SE,146,0.0,2.0,44,0.00,,,0.00,Wunderground v.1.15,2013-04-22 02:35:00,
2013-04-21 20:40:00,43.6,22.5,30.11,SE,146,0.0,2.0,43,0.00,,,0.00,Wunderground v.1.15,2013-04-22 02:40:00,
2013-04-21 20:50:00,42.5,23.2,30.11,SE,146,0.0,2.0,46,0.00,,,0.00,Wunderground v.1.15,2013-04-22 02:50:00,
2013-04-21 21:00:00,41.1,23.9,30.12,SE,146,0.0,2.0,50,0.00,,,0.00,Wunderground v.1.15,2013-04-22 03:00:00,
2013-04-21 21:05:00,40.4,24.6,30.12,SE,146,0.0,2.0,53,0.00,,,0.00,Wunderground v.1.15,2013-04-22 03:05:00,
2013-04-21 21:10:00,39.9,23.7,30.12,SE,146,0.0,2.0,52,0.00,,,0.00,Wunderground v.1.15,2013-04-22 03:10:00,
2013-04-21 21:15:00,39.4,23.7,30.12,SE,146,0.0,2.0,53,0.00,,,0.00,Wunderground v.1.15,2013-04-22 03:15:00,
2013-04-21 21:25:00,38.6,23.4,30.12,SE,146,0.0,1.0,54,0.00,,,0.00,Wunderground v.1.15,2013-04-22 03:25:00,
2013-04-21 21:30:00,38.3,23.1,30.12,SE,146,0.0,1.0,54,0.00,,,0.00,Wunderground v.1.15,2013-04-22 03:30:00,
2013-04-21 21:35:00,37.9,21.4,30.12,SE,146,0.0,1.0,51,0.00,,,0.00,Wunderground v.1.15,2013-04-22 03:35:00,
2013-04-21 21:45:00,37.1,22.8,30.12,SE,146,0.0,1.0,56,0.00,,,0.00,Wunderground v.1.15,2013-04-22 03:45:00,
2013-04-21 21:55:00,36.8,22.6,30.13,SE,146,0.0,1.0,56,0.00,,,0.00,Wunderground v.1.15,2013-04-22 03:55:00,
2013-04-21 22:00:00,36.6,22.4,30.12,SE,146,0.0,1.0,56,0.00,,,0.00,Wunderground v.1.15,2013-04-22 04:00:00,
2013-04-21 22:05:00,36.4,23.8,30.12,SE,146,0.0,1.0,60,0.00,,,0.00,Wunderground v.1.15,2013-04-22 04:05:00,
2013-04-21 22:10:00,36.2,23.2,30.12,SE,146,0.0,1.0,59,0.00,,,0.00,Wunderground v.1.15,2013-04-22 04:10:00,
2013-04-21 22:15:00,36.0,23.0,30.12,SE,146,0.0,1.0,59,0.00,,,0.00,Wunderground v.1.15,2013-04-22 04:15:00,
2013-04-21 22:20:00,35.9,22.5,30.11,SE,146,0.0,0.0,58,0.00,,,0.00,Wunderground v.1.15,2013-04-22 04:20:00,
2013-04-21 22:25:00,35.6,22.7,30.11,SE,146,0.0,0.0,59,0.00,,,0.00,Wunderground v.1.15,2013-04-22 04:25:00,
2013-04-21 22:30:00,35.3,22.8,30.11,SE,146,0.0,0.0,60,0.00,,,0.00,Wunderground v.1.15,2013-04-22 04:30:00,
2013-04-21 22:35:00,35.2,22.7,30.11,SE,146,0.0,0.0,60,0.00,,,0.00,Wunderground v.1.15,2013-04-22 04:35:00,
2013-04-21 22:45:00,35.0,22.5,30.11,SE,146,0.0,0.0,60,0.00,,,0.00,Wunderground v.1.15,2013-04-22 04:45:00,
2013-04-21 22:50:00,35.0,24.4,30.11,SE,146,0.0,0.0,65,0.00,,,0.00,Wunderground v.1.15,2013-04-22 04:50:00,
2013-04-21 22:55:00,34.8,24.2,30.11,SE,146,0.0,0.0,65,0.00,,,0.00,Wunderground v.1.15,2013-04-22 04:55:00,
2013-04-21 23:00:00,34.8,23.9,30.10,SE,146,0.0,0.0,64,0.00,,,0.00,Wunderground v.1.15,2013-04-22 05:00:00,
2013-04-21 23:05:00,34.7,23.4,30.10,SE,146,0.0,0.0,63,0.00,,,0.00,Wunderground v.1.15,2013-04-22 05:05:00,
2013-04-21 23:10:00,34.8,23.9,30.10,SE,146,0.0,0.0,64,0.00,,,0.00,Wunderground v.1.15,2013-04-22 05:10:00,
2013-04-21 23:15:00,34.9,24.3,30.10,SE,146,0.0,1.0,65,0.00,,,0.00,Wunderground v.1.15,2013-04-22 05:15:00,
2013-04-21 23:25:00,35.4,23.7,30.10,SE,146,0.0,0.0,62,0.00,,,0.00,Wunderground v.1.15,2013-04-22 05:25:00,
2013-04-21 23:35:00,35.8,24.4,30.09,SE,146,0.0,0.0,63,0.00,,,0.00,Wunderground v.1.15,2013-04-22 05:35:00,
2013-04-21 23:40:00,35.9,25.3,30.09,SE,146,0.0,1.0,65,0.00,,,0.00,Wunderground v.1.15,2013-04-22 05:40:00,
2013-04-21 23:45:00,36.1,24.7,30.09,SE,146,0.0,1.0,63,0.00,,,0.00,Wunderground v.1.15,2013-04-22 05:45:00,
2013-04-21 23:55:00,36.6,24.4,30.09,SE,146,0.0,1.0,61,0.00,,,0.00,Wunderground v.1.15,2013-04-22 05:55:00,